This is the latest recevied weather packets stored in our database for station/object OK2JCZ-6. If no packets are shown the sender has not sent any weather packets the latest 1 day(s).
| Time | Temp. | Humidity | Pressure | Rain* | Wind** | Luminosity | Snow |
|---|---|---|---|---|---|---|---|
| 1778086180 | 18.89° C | 40% | 1003.4 hPa | 0 mm | - | - | - |
| 1778083480 | 19.44° C | 39% | 1003.6 hPa | 0 mm | - | - | - |
| 1778082281 | 19.44° C | 39% | 1004 hPa | 0 mm | - | - | - |
| 1778081981 | 19.44° C | 40% | 1004.1 hPa | 0 mm | - | - | - |
| 1778077780 | 21.11° C | 37% | 1004.8 hPa | 0 mm | - | - | - |
| 1778076880 | 20.56° C | 39% | 1004.9 hPa | 0 mm | - | - | - |
| 1778076280 | 19.44° C | 41% | 1005.1 hPa | 0 mm | - | - | - |
| 1778073280 | 20° C | 40% | 1005.8 hPa | 0 mm | - | - | - |
| 1778072980 | 20° C | 40% | 1005.8 hPa | 0 mm | - | - | - |
| 1778071180 | 20.56° C | 37% | 1006.2 hPa | 0 mm | - | - | - |
| 1778067880 | 20° C | 39% | 1006.5 hPa | 0 mm | - | - | - |
| 1778067280 | 20° C | 38% | 1006.5 hPa | 0 mm | - | - | - |
| 1778066980 | 20° C | 38% | 1006.5 hPa | 0 mm | - | - | - |
| 1778065780 | 20.56° C | 40% | 1006.7 hPa | 0 mm | - | - | - |
| 1778065480 | 20.56° C | 38% | 1006.8 hPa | 0 mm | - | - | - |
| 1778065180 | 20.56° C | 38% | 1006.7 hPa | 0 mm | - | - | - |
| 1778064280 | 21.11° C | 36% | 1006.8 hPa | 0 mm | - | - | - |
| 1778063080 | 21.67° C | 37% | 1007.1 hPa | 0 mm | - | - | - |
| 1778062780 | 21.67° C | 38% | 1007.1 hPa | 0 mm | - | - | - |
| 1778061580 | 22.22° C | 38% | 1007.3 hPa | 0 mm | - | - | - |
| 1778061280 | 21.11° C | 37% | 1007.3 hPa | 0 mm | - | - | - |
| 1778060980 | 21.11° C | 39% | 1007.3 hPa | 0 mm | - | - | - |
| 1778060080 | 20.56° C | 38% | 1007.3 hPa | 0 mm | - | - | - |
| 1778059180 | 21.11° C | 38% | 1007.3 hPa | 0 mm | - | - | - |
| 1778058581 | 21.11° C | 40% | 1007.3 hPa | 0 mm | - | - | - |
* Rain latest hour (hover to see other rain measurements)
** Current wind speed in m/s (hover to see current wind gust speed)